Time;durP1;ratioP1;P1;durP2;ratioP2;P2;SDS_P1;SDS_P2;PMS_P1;PMS_P2;Temp;Humidity;BMP_temperature;BMP_pressure;BME280_temperature;BME280_humidity;BME280_pressure;Samples;Min_cycle;Max_cycle;Signal;HPM_P1;HPM_P2
2023/08/02 00:00:00;;;;;;;2.58;0.80;;;21.40;74.00;;;;;;5072016;28;20476;-62
2023/08/02 00:02:25;;;;;;;3.30;0.68;;;21.40;74.00;;;;;;5070988;28;20040;-61
2023/08/02 00:04:51;;;;;;;3.38;0.80;;;21.40;74.00;;;;;;5071887;28;20041;-61
2023/08/02 00:07:17;;;;;;;4.30;0.82;;;21.40;74.00;;;;;;5070757;28;20135;-62
2023/08/02 00:09:42;;;;;;;4.43;1.00;;;21.40;74.00;;;;;;5071853;28;20466;-61
2023/08/02 00:12:08;;;;;;;2.50;0.90;;;21.40;74.00;;;;;;5072571;28;20115;-61
2023/08/02 00:14:33;;;;;;;2.70;0.80;;;21.40;73.90;;;;;;5071087;28;20051;-61
2023/08/02 00:16:59;;;;;;;2.13;1.00;;;21.40;73.90;;;;;;5072401;28;20036;-61
2023/08/02 00:19:24;;;;;;;2.47;0.80;;;21.40;73.90;;;;;;5072534;28;20037;-61
2023/08/02 00:21:50;;;;;;;1.27;0.75;;;21.40;74.00;;;;;;5071161;28;20554;-61
2023/08/02 00:24:16;;;;;;;2.60;0.80;;;21.40;73.90;;;;;;5071186;28;20048;-61
2023/08/02 00:26:41;;;;;;;3.15;0.95;;;21.40;73.90;;;;;;5071928;28;20040;-61
2023/08/02 00:29:07;;;;;;;1.60;0.70;;;21.40;73.90;;;;;;5071496;28;20067;-61
2023/08/02 00:31:32;;;;;;;2.10;0.80;;;21.40;73.90;;;;;;5071939;28;20056;-61
2023/08/02 00:33:58;;;;;;;3.13;0.90;;;21.40;74.00;;;;;;5071732;28;20041;-61
2023/08/02 00:36:24;;;;;;;2.92;1.13;;;21.40;74.10;;;;;;5072081;28;20070;-61
2023/08/02 00:38:49;;;;;;;1.83;0.70;;;21.40;74.00;;;;;;5073125;28;20037;-61
2023/08/02 00:41:15;;;;;;;2.30;0.85;;;21.30;73.90;;;;;;5075431;28;20145;-61
2023/08/02 00:43:41;;;;;;;2.65;0.68;;;21.40;74.00;;;;;;5075806;28;20036;-61
2023/08/02 00:46:12;;;;;;;3.55;0.80;;;21.40;73.90;;;;;;5076199;28;20093;-61
2023/08/02 00:48:38;;;;;;;2.08;0.70;;;21.30;73.80;;;;;;5074551;28;20040;-61
2023/08/02 00:51:03;;;;;;;3.03;0.70;;;21.30;73.90;;;;;;5074664;28;20048;-61
2023/08/02 00:53:29;;;;;;;2.53;0.82;;;21.30;73.80;;;;;;5074483;28;20055;-61
2023/08/02 00:55:55;;;;;;;1.95;0.90;;;21.30;73.80;;;;;;5074481;28;20053;-61
2023/08/02 00:58:21;;;;;;;1.98;0.80;;;21.30;73.80;;;;;;5075603;28;20365;-62
2023/08/02 01:00:47;;;;;;;1.67;0.82;;;21.30;73.80;;;;;;5075840;28;20106;-61
2023/08/02 01:03:12;;;;;;;2.22;0.77;;;21.30;73.80;;;;;;5074344;28;20039;-61
2023/08/02 01:05:41;;;;;;;2.55;0.80;;;21.30;73.80;;;;;;5075071;28;20040;-61
2023/08/02 01:08:07;;;;;;;;;;;21.30;73.80;;;;;;5057780;28;20523;-61
2023/08/02 01:10:43;;;;;;;2.65;0.60;;;21.30;73.70;;;;;;5066539;28;19964;-61
2023/08/02 01:13:09;;;;;;;1.88;0.65;;;21.30;73.80;;;;;;5057099;28;20091;-61
2023/08/02 01:15:34;;;;;;;2.35;0.90;;;21.30;73.80;;;;;;5073892;28;20440;-61
2023/08/02 01:18:00;;;;;;;3.85;0.80;;;21.30;73.80;;;;;;5073276;28;20041;-61
2023/08/02 01:20:26;;;;;;;1.95;0.70;;;21.30;74.00;;;;;;5053860;28;20036;-61
2023/08/02 01:22:52;;;;;;;3.42;1.17;;;21.30;73.90;;;;;;5054743;28;20040;-61
2023/08/02 01:25:17;;;;;;;1.13;0.68;;;21.30;73.80;;;;;;5073191;28;20055;-61
2023/08/02 01:27:46;;;;;;;2.80;0.88;;;21.30;73.90;;;;;;5075053;28;20033;-61
2023/08/02 01:30:14;;;;;;;2.40;0.93;;;21.30;73.90;;;;;;5074887;28;20052;-61
2023/08/02 01:32:40;;;;;;;2.30;0.70;;;21.30;73.80;;;;;;5073207;28;20123;-61
2023/08/02 01:35:06;;;;;;;2.92;0.88;;;21.30;73.80;;;;;;5073935;28;20135;-61
2023/08/02 01:37:32;;;;;;;3.25;0.77;;;21.20;73.80;;;;;;5039304;28;20079;-61
2023/08/02 01:39:58;;;;;;;3.65;0.70;;;21.30;73.80;;;;;;5074066;28;20083;-61
2023/08/02 01:42:26;;;;;;;2.55;0.77;;;21.20;73.70;;;;;;5073891;28;20079;-61
2023/08/02 01:44:52;;;;;;;2.05;0.80;;;21.30;73.70;;;;;;5074066;28;20041;-61
2023/08/02 01:47:17;;;;;;;3.08;0.90;;;21.30;73.70;;;;;;5074727;28;20036;-61
2023/08/02 01:49:43;;;;;;;2.40;0.80;;;21.20;73.70;;;;;;5073344;28;20056;-61
2023/08/02 01:52:09;;;;;;;2.15;0.90;;;21.30;73.80;;;;;;5074047;28;20383;-61
2023/08/02 01:54:35;;;;;;;2.28;0.80;;;21.20;73.70;;;;;;5073949;28;20060;-61
2023/08/02 01:57:01;;;;;;;5.72;1.30;;;21.30;73.70;;;;;;5074328;28;20456;-61
2023/08/02 01:59:26;;;;;;;3.33;1.10;;;21.20;73.70;;;;;;5074009;28;20506;-61
2023/08/02 02:01:52;;;;;;;1.23;0.75;;;21.20;73.80;;;;;;5073179;28;20043;-61
2023/08/02 02:04:17;;;;;;;3.38;1.10;;;21.30;73.70;;;;;;5072969;28;20064;-61
2023/08/02 02:06:43;;;;;;;3.80;0.82;;;21.20;73.70;;;;;;5070922;28;20105;-61
2023/08/02 02:09:08;;;;;;;2.25;0.80;;;21.20;73.70;;;;;;5073430;28;20123;-61
2023/08/02 02:11:34;;;;;;;3.40;0.90;;;21.20;73.70;;;;;;5074055;28;20052;-61
2023/08/02 02:13:59;;;;;;;2.35;0.73;;;21.20;73.70;;;;;;5072001;28;20037;-62
2023/08/02 02:16:25;;;;;;;1.73;0.82;;;21.20;73.70;;;;;;5073117;28;20117;-61
2023/08/02 02:18:51;;;;;;;3.67;1.10;;;21.20;73.80;;;;;;5073511;28;20119;-61
2023/08/02 02:21:16;;;;;;;2.20;0.70;;;21.20;73.80;;;;;;5073583;28;20048;-62
2023/08/02 02:23:42;;;;;;;2.58;1.17;;;21.20;73.90;;;;;;5072120;28;20040;-61
2023/08/02 02:26:08;;;;;;;1.80;0.70;;;21.20;73.90;;;;;;5074317;28;20523;-61
2023/08/02 02:28:33;;;;;;;1.90;0.82;;;21.20;73.90;;;;;;5073154;28;20050;-61
2023/08/02 02:30:59;;;;;;;2.35;1.00;;;21.20;73.90;;;;;;5073078;28;20052;-61
2023/08/02 02:33:24;;;;;;;2.72;0.88;;;21.20;73.90;;;;;;5073706;28;20399;-61
2023/08/02 02:35:50;;;;;;;1.80;0.70;;;21.20;73.90;;;;;;5072616;28;20090;-61
2023/08/02 02:38:16;;;;;;;1.63;0.80;;;21.20;73.90;;;;;;5074103;28;20036;-61
2023/08/02 02:40:42;;;;;;;2.10;0.60;;;21.20;73.80;;;;;;5072389;28;20048;-61
2023/08/02 02:43:08;;;;;;;1.63;0.82;;;21.20;73.80;;;;;;5073327;28;20048;-62
2023/08/02 02:45:33;;;;;;;1.83;0.80;;;21.20;73.80;;;;;;5073084;28;20037;-61
2023/08/02 02:47:59;;;;;;;1.48;0.65;;;21.20;73.80;;;;;;5071243;28;20051;-61
2023/08/02 02:50:24;;;;;;;3.03;0.88;;;21.20;73.90;;;;;;5073547;28;20041;-61
2023/08/02 02:52:50;;;;;;;1.23;0.70;;;21.20;73.80;;;;;;5071371;28;20036;-61
2023/08/02 02:55:15;;;;;;;1.60;0.85;;;21.20;73.80;;;;;;5072548;28;20434;-61
2023/08/02 02:57:41;;;;;;;2.33;0.93;;;21.20;73.80;;;;;;5072841;28;20080;-61
2023/08/02 03:00:08;;;;;;;1.98;0.60;;;21.20;73.80;;;;;;5073090;28;20058;-61
2023/08/02 03:02:34;;;;;;;2.03;0.80;;;21.20;73.80;;;;;;5072008;28;20040;-61
2023/08/02 03:04:59;;;;;;;3.78;0.95;;;21.20;73.80;;;;;;5072868;28;20036;-61
2023/08/02 03:07:25;;;;;;;4.00;0.88;;;21.10;73.70;;;;;;5073278;28;20087;-61
2023/08/02 03:09:51;;;;;;;1.63;0.70;;;21.20;73.80;;;;;;5071818;28;20045;-61
2023/08/02 03:12:16;;;;;;;2.17;0.90;;;21.20;73.80;;;;;;5072166;28;20373;-61
2023/08/02 03:14:42;;;;;;;1.92;1.00;;;21.20;73.70;;;;;;5071253;28;20045;-61
2023/08/02 03:17:07;;;;;;;1.95;0.73;;;21.10;73.70;;;;;;5072214;28;20480;-61
2023/08/02 03:19:36;;;;;;;2.15;0.70;;;21.10;73.70;;;;;;5072595;28;20043;-61
2023/08/02 03:22:01;;;;;;;;;;;21.10;73.70;;;;;;5071807;28;20507;-61
2023/08/02 03:24:27;;;;;;;3.10;0.88;;;21.10;73.60;;;;;;5072524;28;19920;-61
2023/08/02 03:26:52;;;;;;;1.25;0.65;;;21.10;73.80;;;;;;5072597;28;20041;-61
2023/08/02 03:29:18;;;;;;;2.20;0.80;;;21.10;73.70;;;;;;5072085;28;20041;-61
2023/08/02 03:31:44;;;;;;;2.72;0.93;;;21.10;73.70;;;;;;5071275;28;20460;-61
2023/08/02 03:34:09;;;;;;;2.60;0.82;;;21.10;73.80;;;;;;5054319;28;20044;-61
2023/08/02 03:36:36;;;;;;;2.78;0.75;;;21.10;73.70;;;;;;5072009;28;20048;-61
2023/08/02 03:39:01;;;;;;;1.80;0.80;;;21.10;73.70;;;;;;5072005;28;20112;-61
2023/08/02 03:41:27;;;;;;;2.53;1.10;;;21.10;73.70;;;;;;5072689;28;20147;-61
2023/08/02 03:43:53;;;;;;;1.70;0.80;;;21.10;73.70;;;;;;5072577;28;20040;-61
2023/08/02 03:46:18;;;;;;;2.17;0.93;;;21.10;73.70;;;;;;5071883;28;20448;-61
2023/08/02 03:48:44;;;;;;;1.98;0.80;;;21.10;73.70;;;;;;5072630;28;20041;-61
2023/08/02 03:51:09;;;;;;;1.90;0.70;;;21.10;73.70;;;;;;5071795;28;20391;-61
2023/08/02 03:53:35;;;;;;;2.67;0.80;;;21.10;74.30;;;;;;5071997;28;20044;-61
2023/08/02 03:56:00;;;;;;;3.13;1.00;;;21.10;73.70;;;;;;5072597;28;20048;-61
2023/08/02 03:58:26;;;;;;;2.63;1.00;;;21.10;73.70;;;;;;5070839;28;20068;-61
2023/08/02 04:00:52;;;;;;;2.22;1.00;;;21.10;73.70;;;;;;5067502;28;20041;-61
2023/08/02 04:03:17;;;;;;;2.42;0.80;;;21.00;74.20;;;;;;5072136;28;20044;-61
2023/08/02 04:05:43;;;;;;;1.95;0.75;;;21.00;73.60;;;;;;5070376;28;20100;-61
2023/08/02 04:08:09;;;;;;;2.28;0.80;;;21.10;73.70;;;;;;5072327;28;20033;-61
2023/08/02 04:10:36;;;;;;;2.45;0.90;;;21.10;73.60;;;;;;5072187;28;20396;-61
2023/08/02 04:13:02;;;;;;;1.88;0.88;;;21.10;73.60;;;;;;5072000;28;20400;-61
2023/08/02 04:15:29;;;;;;;1.30;0.75;;;21.10;73.60;;;;;;5076207;28;20040;-61
2023/08/02 04:17:55;;;;;;;2.97;0.70;;;21.10;73.60;;;;;;5058500;28;20048;-61
2023/08/02 04:20:20;;;;;;;2.92;1.00;;;21.10;73.60;;;;;;5075457;28;20043;-61
2023/08/02 04:22:47;;;;;;;3.88;1.45;;;21.00;73.60;;;;;;5076440;28;20090;-61
2023/08/02 04:25:13;;;;;;;2.97;0.90;;;21.00;73.60;;;;;;5076241;28;20571;-61
2023/08/02 04:27:38;;;;;;;3.78;1.20;;;21.00;73.60;;;;;;5075206;28;20127;-61
2023/08/02 04:30:04;;;;;;;2.35;0.93;;;21.00;73.60;;;;;;5074802;28;20040;-61
2023/08/02 04:32:31;;;;;;;2.83;1.10;;;21.00;73.60;;;;;;5074662;28;20084;-61
2023/08/02 04:34:56;;;;;;;3.67;0.90;;;21.00;73.60;;;;;;5073431;28;20480;-61
2023/08/02 04:37:22;;;;;;;2.55;1.00;;;21.10;73.60;;;;;;5076361;28;20047;-61
2023/08/02 04:39:47;;;;;;;3.78;0.98;;;21.00;73.70;;;;;;5075897;28;20044;-61
2023/08/02 04:42:15;;;;;;;2.38;1.10;;;21.00;73.60;;;;;;5073922;28;20502;-61
2023/08/02 04:44:41;;;;;;;2.78;1.05;;;21.00;73.70;;;;;;5075740;28;20044;-61
2023/08/02 04:47:07;;;;;;;2.03;0.90;;;21.00;73.70;;;;;;5075385;28;20384;-61
2023/08/02 04:49:32;;;;;;;2.10;0.90;;;21.00;73.70;;;;;;5073433;28;20043;-61
2023/08/02 04:51:58;;;;;;;3.35;1.10;;;21.00;73.70;;;;;;5074375;28;20036;-61
2023/08/02 04:54:23;;;;;;;2.60;0.85;;;21.00;73.70;;;;;;5075159;28;20075;-61
2023/08/02 04:56:50;;;;;;;2.20;0.98;;;21.00;73.70;;;;;;5075305;28;20041;-61
2023/08/02 04:59:15;;;;;;;2.58;1.08;;;21.00;73.70;;;;;;5075856;28;20488;-61
2023/08/02 05:01:41;;;;;;;2.60;1.10;;;21.00;73.60;;;;;;5074006;28;20052;-61
2023/08/02 05:04:08;;;;;;;3.38;0.98;;;21.00;73.70;;;;;;5075846;28;20036;-61
2023/08/02 05:06:34;;;;;;;2.70;1.13;;;21.00;73.90;;;;;;5075257;28;20045;-61
2023/08/02 05:09:01;;;;;;;2.35;0.95;;;21.00;73.90;;;;;;5073632;28;20131;-61
2023/08/02 05:11:27;;;;;;;3.25;1.13;;;21.00;74.00;;;;;;5075646;28;20040;-62
2023/08/02 05:13:52;;;;;;;2.53;1.00;;;21.00;74.10;;;;;;5073316;28;20036;-61
2023/08/02 05:16:18;;;;;;;3.35;1.10;;;21.00;74.10;;;;;;5066702;28;20053;-61
2023/08/02 05:18:43;;;;;;;3.67;1.45;;;21.00;74.00;;;;;;5055191;28;20139;-61
2023/08/02 05:21:16;;;;;;;3.35;1.27;;;21.00;74.00;;;;;;5066935;28;20048;-61
2023/08/02 05:23:42;;;;;;;3.80;1.13;;;21.00;74.00;;;;;;5074229;28;20481;-61
2023/08/02 05:26:07;;;;;;;2.38;0.93;;;21.00;73.90;;;;;;5074554;28;20043;-61
2023/08/02 05:28:33;;;;;;;3.42;1.30;;;21.00;73.90;;;;;;5075437;28;20472;-61
2023/08/02 05:30:59;;;;;;;3.17;1.23;;;21.00;73.90;;;;;;5073549;28;20059;-61
2023/08/02 05:33:24;;;;;;;2.97;1.23;;;21.00;73.90;;;;;;5074341;28;20041;-61
2023/08/02 05:35:50;;;;;;;2.58;1.25;;;21.00;73.90;;;;;;5074638;28;20052;-61
2023/08/02 05:38:15;;;;;;;5.60;1.45;;;21.00;74.00;;;;;;5073643;28;20154;-61
2023/08/02 05:40:41;;;;;;;3.17;1.45;;;21.00;74.00;;;;;;5074757;28;20391;-61
2023/08/02 05:43:07;;;;;;;1.98;1.00;;;21.00;74.10;;;;;;5074783;28;20040;-61
2023/08/02 05:45:33;;;;;;;3.30;1.20;;;21.00;74.10;;;;;;5073526;28;20400;-61
2023/08/02 05:47:58;;;;;;;2.42;1.10;;;21.00;74.10;;;;;;5074681;28;20052;-61
2023/08/02 05:50:24;;;;;;;2.40;1.15;;;21.00;74.10;;;;;;5074779;28;20041;-61
2023/08/02 05:52:50;;;;;;;3.78;1.27;;;21.00;74.20;;;;;;5072478;28;20048;-62
2023/08/02 05:55:18;;;;;;;3.55;1.25;;;20.90;74.20;;;;;;5074885;28;20083;-62
2023/08/02 05:57:44;;;;;;;3.03;1.30;;;21.00;74.20;;;;;;5072609;28;20152;-61
2023/08/02 06:00:10;;;;;;;2.80;1.35;;;21.00;74.20;;;;;;5073835;28;20543;-61
2023/08/02 06:02:36;;;;;;;2.75;1.00;;;21.00;74.30;;;;;;5073819;28;20431;-61
2023/08/02 06:05:02;;;;;;;3.10;1.40;;;21.00;74.30;;;;;;5073685;28;20546;-61
2023/08/02 06:07:27;;;;;;;3.65;1.05;;;21.00;74.40;;;;;;5072703;28;20450;-61
2023/08/02 06:09:53;;;;;;;1.92;1.00;;;21.00;74.40;;;;;;5074229;28;20048;-61
2023/08/02 06:12:19;;;;;;;2.42;1.10;;;21.00;74.40;;;;;;5072966;28;20048;-61
2023/08/02 06:14:50;;;;;;;3.17;1.23;;;21.00;74.40;;;;;;5073899;28;20040;-61
2023/08/02 06:17:16;;;;;;;3.10;1.13;;;21.00;74.40;;;;;;5074244;28;20044;-61
2023/08/02 06:19:41;;;;;;;4.00;1.55;;;21.00;74.40;;;;;;5073127;28;20041;-61
2023/08/02 06:22:08;;;;;;;3.15;1.50;;;21.00;74.40;;;;;;5072942;28;20120;-61
2023/08/02 06:24:34;;;;;;;2.47;1.00;;;21.00;74.40;;;;;;5072706;28;20045;-61
2023/08/02 06:26:59;;;;;;;3.05;1.23;;;21.00;74.40;;;;;;5073085;28;20037;-61
2023/08/02 06:29:25;;;;;;;3.08;1.15;;;21.00;74.40;;;;;;5072529;28;20044;-61
2023/08/02 06:31:50;;;;;;;2.58;1.20;;;21.00;74.30;;;;;;5071365;28;20065;-61
2023/08/02 06:34:16;;;;;;;3.95;1.20;;;21.00;74.30;;;;;;5072645;28;20055;-61
2023/08/02 06:36:41;;;;;;;3.13;1.38;;;21.00;74.20;;;;;;5072101;28;20464;-63
2023/08/02 06:39:07;;;;;;;5.55;1.70;;;21.00;74.80;;;;;;5071792;28;20041;-61
2023/08/02 06:41:33;;;;;;;3.65;1.30;;;21.00;74.40;;;;;;5072870;28;20032;-62
2023/08/02 06:43:58;;;;;;;4.72;1.50;;;21.00;74.40;;;;;;5073514;28;20044;-62
2023/08/02 06:46:24;;;;;;;5.80;1.40;;;21.00;74.30;;;;;;5073404;28;20048;-61
2023/08/02 06:48:50;;;;;;;4.32;1.83;;;21.00;74.30;;;;;;5072427;28;20079;-61
2023/08/02 06:51:15;;;;;;;7.85;1.55;;;21.00;74.40;;;;;;5071628;28;20052;-61
2023/08/02 06:53:41;;;;;;;7.70;1.73;;;21.10;74.50;;;;;;5073093;28;20054;-61
2023/08/02 06:56:12;;;;;;;7.43;1.77;;;21.10;74.60;;;;;;5071581;28;20032;-61
2023/08/02 06:58:38;;;;;;;6.47;1.65;;;21.00;74.60;;;;;;5073284;28;20044;-62
2023/08/02 07:01:14;;;;;;;4.05;1.70;;;21.10;74.70;;;;;;5072634;28;20086;-61
2023/08/02 07:03:39;;;;;;;5.38;1.23;;;21.10;74.50;;;;;;5071950;28;20488;-61
2023/08/02 07:06:09;;;;;;;3.95;1.15;;;21.10;74.60;;;;;;5072929;28;20044;-61
2023/08/02 07:08:36;;;;;;;5.75;1.65;;;21.10;74.60;;;;;;5070973;28;20032;-61
2023/08/02 07:11:01;;;;;;;4.63;1.60;;;21.00;74.60;;;;;;5072211;28;20498;-62
2023/08/02 07:13:27;;;;;;;5.07;1.52;;;21.00;74.50;;;;;;5072798;28;20028;-61
2023/08/02 07:15:52;;;;;;;6.20;1.20;;;21.00;74.60;;;;;;5071936;28;20098;-60
2023/08/02 07:18:18;;;;;;;5.82;1.58;;;21.10;74.70;;;;;;5071572;28;20068;-61
2023/08/02 07:20:44;;;;;;;4.20;1.42;;;21.10;75.40;;;;;;5071115;28;20043;-61
2023/08/02 07:23:09;;;;;;;8.82;1.42;;;21.10;74.80;;;;;;5068908;28;20044;-61
2023/08/02 07:25:35;;;;;;;4.97;1.52;;;21.10;75.40;;;;;;5070226;28;20047;-61
2023/08/02 07:28:00;;;;;;;5.00;1.90;;;21.10;74.80;;;;;;5070843;28;20120;-61
2023/08/02 07:30:26;;;;;;;6.20;1.70;;;21.10;74.80;;;;;;5068444;28;20450;-61
2023/08/02 07:32:52;;;;;;;4.25;1.20;;;21.10;74.80;;;;;;5102590;28;20045;-62
2023/08/02 07:35:17;;;;;;;4.40;1.40;;;21.10;74.90;;;;;;5070568;28;20048;-62
2023/08/02 07:37:43;;;;;;;8.27;1.50;;;21.10;74.90;;;;;;5071286;28;20044;-61
2023/08/02 07:40:09;;;;;;;3.45;1.42;;;21.10;75.00;;;;;;5072506;28;20036;-62
2023/08/02 07:42:34;;;;;;;4.40;1.65;;;21.10;75.00;;;;;;5071592;28;20409;-63
2023/08/02 07:45:08;;;;;;;5.28;1.70;;;21.10;75.00;;;;;;5069782;28;20484;-62
2023/08/02 07:47:34;;;;;;;3.75;1.38;;;21.10;75.00;;;;;;5069818;28;20380;-62
2023/08/02 07:50:00;;;;;;;5.28;1.52;;;21.10;74.90;;;;;;5070328;28;20041;-60
2023/08/02 07:52:25;;;;;;;4.10;1.30;;;21.00;74.80;;;;;;5070360;28;20040;-62
2023/08/02 07:54:54;;;;;;;4.13;1.30;;;21.00;74.80;;;;;;5071429;28;20399;-62
2023/08/02 07:57:21;;;;;;;5.38;1.90;;;21.10;74.90;;;;;;5071647;28;20067;-62
2023/08/02 07:59:47;;;;;;;6.35;1.30;;;21.10;75.00;;;;;;5070368;28;20055;-61
2023/08/02 08:02:13;;;;;;;4.30;1.60;;;21.10;75.00;;;;;;5072344;28;20037;-61
2023/08/02 08:04:38;;;;;;;4.05;1.60;;;21.10;75.00;;;;;;5070262;28;20044;-62
2023/08/02 08:07:04;;;;;;;4.45;1.60;;;21.10;75.10;;;;;;5071147;28;20036;-63
2023/08/02 08:09:30;;;;;;;3.45;1.50;;;21.10;75.10;;;;;;5072309;28;20076;-61
2023/08/02 08:11:55;;;;;;;6.85;1.35;;;21.00;75.10;;;;;;5070759;28;20041;-62
2023/08/02 08:14:21;;;;;;;8.30;1.90;;;21.10;75.20;;;;;;5071608;28;20048;-62
2023/08/02 08:16:47;;;;;;;5.00;1.65;;;21.00;75.10;;;;;;5071284;28;20044;-62
2023/08/02 08:19:13;;;;;;;6.43;1.88;;;21.10;75.20;;;;;;5069607;28;20046;-64
2023/08/02 08:21:39;;;;;;;4.03;1.20;;;21.10;75.10;;;;;;5065199;28;20120;-60
2023/08/02 08:24:06;;;;;;;5.13;1.55;;;21.10;75.10;;;;;;5051895;28;20115;-60
2023/08/02 08:26:32;;;;;;;6.10;1.50;;;21.00;75.00;;;;;;5070840;28;20535;-60
2023/08/02 08:29:00;;;;;;;5.05;1.50;;;21.10;75.10;;;;;;5071685;28;20124;-60
2023/08/02 08:31:28;;;;;;;5.28;1.40;;;21.10;75.10;;;;;;5069112;28;20591;-59
2023/08/02 08:33:54;;;;;;;;;;;21.10;75.10;;;;;;5056943;28;20051;-60
2023/08/02 08:36:21;;;;;;;7.20;1.33;;;21.10;75.20;;;;;;5069860;28;19920;-60
2023/08/02 08:38:46;;;;;;;3.53;1.38;;;21.10;75.10;;;;;;5071448;28;20428;-60
2023/08/02 08:41:15;;;;;;;5.60;1.55;;;21.10;75.20;;;;;;5071003;28;20127;-60
2023/08/02 08:43:40;;;;;;;4.30;1.45;;;21.10;75.20;;;;;;5071016;28;20045;-60
2023/08/02 08:46:06;;;;;;;3.70;1.30;;;21.10;75.10;;;;;;5071286;28;20552;-60
2023/08/02 08:48:33;;;;;;;5.50;1.50;;;21.10;75.00;;;;;;5068342;28;20059;-60
2023/08/02 08:50:59;;;;;;;6.57;1.60;;;21.20;75.10;;;;;;5070246;28;20391;-60
2023/08/02 08:53:32;;;;;;;4.05;1.30;;;21.20;75.00;;;;;;5069191;28;20055;-60
2023/08/02 08:55:57;;;;;;;4.00;1.40;;;21.20;75.00;;;;;;5071430;28;20472;-61
2023/08/02 08:58:23;;;;;;;5.15;1.33;;;21.20;74.80;;;;;;5069609;28;20037;-59
2023/08/02 09:00:48;;;;;;;8.43;1.55;;;21.20;74.90;;;;;;5071087;28;20119;-59
2023/08/02 09:03:14;;;;;;;4.97;1.48;;;21.20;75.00;;;;;;5073977;28;20048;-60
2023/08/02 09:05:40;;;;;;;5.82;1.60;;;21.20;75.00;;;;;;5071464;28;20041;-61
2023/08/02 09:08:06;;;;;;;4.38;1.63;;;21.20;75.00;;;;;;5068728;28;20040;-60
2023/08/02 09:10:32;;;;;;;3.88;1.38;;;21.20;75.00;;;;;;5066440;28;20048;-60
2023/08/02 09:12:58;;;;;;;3.75;1.65;;;21.20;75.00;;;;;;5074292;28;20036;-60
2023/08/02 09:15:24;;;;;;;5.30;1.70;;;21.20;75.00;;;;;;5074150;28;20484;-61
2023/08/02 09:17:53;;;;;;;5.35;1.55;;;21.20;75.00;;;;;;5074131;28;20105;-60
2023/08/02 09:20:20;;;;;;;4.75;1.58;;;21.20;75.00;;;;;;5075025;28;20073;-60
2023/08/02 09:22:46;;;;;;;4.72;1.67;;;21.20;75.10;;;;;;5073338;28;20046;-60
2023/08/02 09:25:25;;;;;;;3.75;1.58;;;21.20;75.10;;;;;;5074828;28;20040;-61
2023/08/02 09:27:52;;;;;;;3.97;1.52;;;21.20;75.10;;;;;;5073375;28;20048;-60
2023/08/02 09:30:27;;;;;;;4.20;1.38;;;21.20;75.10;;;;;;5073241;28;20044;-61
2023/08/02 09:33:06;;;;;;;5.93;1.80;;;21.20;75.10;;;;;;5074672;28;20045;-60
2023/08/02 09:35:53;;;;;;;4.30;1.40;;;21.20;75.10;;;;;;5074700;28;20044;-60
2023/08/02 09:38:19;;;;;;;4.73;1.60;;;21.20;75.10;;;;;;5074735;28;20068;-61
2023/08/02 09:40:48;;;;;;;3.75;1.52;;;21.20;75.10;;;;;;5074764;28;20654;-60
2023/08/02 09:43:17;;;;;;;5.15;1.60;;;21.20;75.10;;;;;;5074288;28;20043;-61
2023/08/02 09:45:43;;;;;;;4.72;1.63;;;21.20;75.10;;;;;;5074454;28;20537;-60
2023/08/02 09:48:08;;;;;;;5.13;1.33;;;21.20;75.10;;;;;;5074821;28;20044;-60
2023/08/02 09:50:41;;;;;;;4.28;1.25;;;21.20;75.10;;;;;;5073531;28;20072;-61
2023/08/02 09:53:16;;;;;;;3.92;1.60;;;21.20;75.10;;;;;;5073462;28;20048;-60
2023/08/02 09:55:44;;;;;;;3.28;1.35;;;21.20;75.10;;;;;;5074473;28;20476;-60
2023/08/02 09:58:10;;;;;;;2.58;1.30;;;21.20;75.10;;;;;;5073867;28;20036;-61
2023/08/02 10:00:36;;;;;;;3.38;1.38;;;21.20;75.20;;;;;;5056174;28;20059;-59
2023/08/02 10:03:02;;;;;;;4.30;1.83;;;21.20;75.20;;;;;;5053121;28;20059;-61
2023/08/02 10:05:27;;;;;;;2.78;1.30;;;21.20;75.10;;;;;;5052168;28;20041;-60
2023/08/02 10:07:53;;;;;;;4.45;1.50;;;21.20;75.20;;;;;;5063755;28;20575;-60
2023/08/02 10:10:23;;;;;;;3.95;1.20;;;21.20;75.10;;;;;;5074371;28;20048;-59
2023/08/02 10:12:59;;;;;;;3.75;1.45;;;21.20;75.20;;;;;;5071824;28;20813;-60
2023/08/02 10:15:25;;;;;;;4.68;1.70;;;21.20;75.10;;;;;;5073264;28;20044;-60
2023/08/02 10:17:50;;;;;;;3.20;1.40;;;21.20;75.10;;;;;;5071453;28;20381;-60
2023/08/02 10:20:16;;;;;;;5.88;1.50;;;21.20;75.00;;;;;;5073389;28;20078;-60
2023/08/02 10:22:43;;;;;;;3.72;1.60;;;21.10;75.00;;;;;;5072209;28;20044;-60
2023/08/02 10:25:10;;;;;;;3.88;1.40;;;21.20;74.90;;;;;;5073806;28;20084;-60
2023/08/02 10:27:35;;;;;;;5.53;1.85;;;21.20;74.90;;;;;;5072727;28;20045;-60
2023/08/02 10:30:04;;;;;;;4.07;1.50;;;21.10;74.80;;;;;;5072793;28;20055;-59
2023/08/02 10:32:30;;;;;;;2.72;1.27;;;21.20;74.90;;;;;;5072118;28;20083;-59
2023/08/02 10:34:56;;;;;;;3.92;1.40;;;21.20;75.10;;;;;;5073291;28;20098;-60
2023/08/02 10:37:22;;;;;;;5.80;1.60;;;21.10;75.10;;;;;;5073300;28;20048;-60
2023/08/02 10:39:48;;;;;;;5.55;1.83;;;21.20;75.30;;;;;;5072625;28;20040;-60
2023/08/02 10:42:14;;;;;;;4.65;1.90;;;21.20;75.40;;;;;;5073328;28;20044;-60
2023/08/02 10:44:55;;;;;;;3.78;1.58;;;21.20;75.50;;;;;;5073569;28;20056;-60
2023/08/02 10:47:26;;;;;;;7.53;2.10;;;21.20;75.50;;;;;;5072654;28;20626;-59
2023/08/02 10:49:52;;;;;;;3.72;1.40;;;21.20;75.50;;;;;;5072690;28;20063;-59
2023/08/02 10:52:29;;;;;;;3.97;1.80;;;21.20;75.40;;;;;;5073004;28;20036;-60
2023/08/02 10:55:07;;;;;;;5.07;1.63;;;21.20;75.40;;;;;;5072666;28;20048;-61
2023/08/02 10:57:33;;;;;;;;;;;21.20;75.40;;;;;;5073728;28;20041;-59
2023/08/02 10:59:59;;;;;;;7.85;1.60;;;21.10;75.20;;;;;;5072697;28;20386;-60
2023/08/02 11:02:25;;;;;;;2.72;1.40;;;21.20;75.40;;;;;;5073343;28;20037;-60
2023/08/02 11:04:51;;;;;;;2.60;1.42;;;21.20;75.40;;;;;;5072856;28;20506;-59
2023/08/02 11:07:21;;;;;;;5.45;1.50;;;21.10;75.30;;;;;;5072263;28;20041;-59
2023/08/02 11:09:52;;;;;;;5.70;1.70;;;21.20;75.40;;;;;;5073139;28;20131;-60
2023/08/02 11:12:18;;;;;;;4.32;1.73;;;21.20;75.30;;;;;;5073170;28;20068;-60
2023/08/02 11:14:53;;;;;;;2.15;1.13;;;21.10;75.10;;;;;;5071967;28;20071;-59
2023/08/02 11:17:22;;;;;;;3.92;1.35;;;21.20;75.20;;;;;;5072921;28;20047;-59
2023/08/02 11:19:49;;;;;;;5.13;1.65;;;21.20;75.00;;;;;;5064343;28;20033;-59
2023/08/02 11:22:15;;;;;;;3.78;1.60;;;21.20;74.90;;;;;;5056519;28;20044;-59
2023/08/02 11:24:50;;;;;;;6.78;1.63;;;21.20;74.80;;;;;;5054809;28;20046;-59
2023/08/02 11:27:23;;;;;;;3.80;1.40;;;21.20;74.80;;;;;;5072885;28;20526;-59
2023/08/02 11:30:13;;;;;;;7.47;1.50;;;21.20;74.90;;;;;;5072211;28;20079;-59
2023/08/02 11:32:43;;;;;;;4.50;1.63;;;21.20;74.80;;;;;;5071115;28;20041;-59
2023/08/02 11:35:09;;;;;;;5.07;1.80;;;21.20;74.90;;;;;;5071360;28;20078;-59
2023/08/02 11:37:37;;;;;;;3.50;1.50;;;21.20;75.00;;;;;;5071985;28;20128;-59
2023/08/02 11:40:02;;;;;;;6.60;1.50;;;21.20;75.00;;;;;;5073116;28;20059;-59
2023/08/02 11:42:28;;;;;;;3.33;1.42;;;21.30;75.10;;;;;;5070959;28;20040;-59
2023/08/02 11:44:54;;;;;;;3.00;1.20;;;21.20;75.00;;;;;;5071486;28;20048;-59
2023/08/02 11:47:19;;;;;;;4.25;1.48;;;21.30;75.00;;;;;;5072526;28;20036;-59
2023/08/02 11:49:52;;;;;;;2.97;1.30;;;21.30;75.10;;;;;;5071469;28;20480;-59
2023/08/02 11:52:27;;;;;;;3.90;1.60;;;21.30;75.20;;;;;;5072394;28;20048;-60
2023/08/02 11:54:53;;;;;;;3.90;1.20;;;21.30;75.20;;;;;;5071920;28;20036;-60
2023/08/02 11:57:19;;;;;;;3.90;1.60;;;21.30;75.20;;;;;;5070597;28;20059;-59
2023/08/02 11:59:46;;;;;;;3.65;1.52;;;21.30;75.20;;;;;;5070874;28;20040;-60
2023/08/02 12:02:29;;;;;;;3.97;1.40;;;21.30;75.20;;;;;;5054972;28;20430;-59
2023/08/02 12:04:55;;;;;;;3.78;1.25;;;21.30;75.20;;;;;;5071834;28;20033;-59
2023/08/02 12:07:28;;;;;;;2.53;1.08;;;21.30;75.20;;;;;;5072274;28;20395;-60
2023/08/02 12:09:53;;;;;;;3.33;1.23;;;21.30;75.30;;;;;;5055570;28;20036;-58
2023/08/02 12:12:19;;;;;;;3.13;1.20;;;21.40;75.30;;;;;;5071220;28;20552;-59
2023/08/02 12:14:45;;;;;;;4.32;1.50;;;21.40;75.40;;;;;;5070679;28;20492;-59
2023/08/02 12:17:20;;;;;;;2.90;1.15;;;21.40;75.30;;;;;;5071057;28;20037;-59
2023/08/02 12:19:46;;;;;;;3.92;1.58;;;21.40;75.90;;;;;;5071200;28;20048;-60
2023/08/02 12:22:11;;;;;;;2.95;1.30;;;21.40;75.30;;;;;;5072442;28;20047;-60
2023/08/02 12:24:37;;;;;;;3.25;1.13;;;21.40;75.40;;;;;;5070152;28;20038;-59
2023/08/02 12:27:17;;;;;;;3.53;1.23;;;21.50;75.50;;;;;;5072142;28;20365;-59
2023/08/02 12:29:43;;;;;;;2.80;1.00;;;21.50;75.60;;;;;;5070620;28;20427;-60
2023/08/02 12:32:26;;;;;;;2.83;1.23;;;21.50;75.50;;;;;;5070742;28;20056;-59
2023/08/02 12:34:52;;;;;;;4.70;1.50;;;21.50;75.60;;;;;;5073391;28;20047;-59
2023/08/02 12:37:18;;;;;;;4.10;1.27;;;21.50;75.50;;;;;;5075406;28;20036;-58
2023/08/02 12:39:43;;;;;;;2.95;1.30;;;21.60;75.50;;;;;;5073586;28;20318;-59
2023/08/02 12:42:09;;;;;;;2.85;1.00;;;21.50;75.60;;;;;;5076016;28;20053;-59
2023/08/02 12:44:35;;;;;;;4.43;1.38;;;21.50;75.30;;;;;;5075325;28;20044;-59